EGBBLJLJ

Guest
Details From EGBB - Birmingham
To LJLJ - Ljubljana
Flight Number -
Tags Generated
Created
Modified
Stats Distance 733 nm / 1,358 km
Max Altitude 0 ft / 0 m
Waypoints 5
Social Downloads 0
Likes 0
Share VATSIM

Download

Looking for another format? Having issues loading an existing format? Contact us
Advertisement - Login to hide

Notes

Generated

Route

EGBB ONC DS041 ISTRI LJLJ

ID Type Via Altitude Latitude Longitude Leg Dist Tot Dist Heading (true) Name
O EGBB APT - 0 ft / 0 m 52.45113˚ -1.75493˚ - 0 nm - -
ONC NDB - 0 ft / 0 m 50.48944˚ 4.55528˚ 263 nm 263 nm 114° / 119° CHARLEROI NDB
DS041 FIX - 0 ft / 0 m 48.76784˚ 9.02765˚ 202 nm 466 nm 119° / 122° -
ISTRI FIX - 0 ft / 0 m 46.49805˚ 13.95939˚ 241 nm 707 nm 122° / 126° -
O LJLJ APT - 0 ft / 0 m 46.23249˚ 14.44039˚ 25 nm 733 nm 128° / 129° -

Altitude Profile

Advertisement - Login to hide

Weather


0- 5 10 15 20 25 30 35+ Temperature / ° C

Clouds and Precipitation
Forecast for 2018-05-20 18:00 UTC. Updated 5 hours ago

Ground ~20,000 ft ~40,000 ft Winds

EGBB

Details ICAO EGBB (BHX)
Name Birmingham
Region United Kingdom
Timezone Europe/London (UTC+1.0)
Stats Elevation 327 ft / 100 m (AMSL)
Location 52.455966° -1.750378°
Runways 1
Magnetic Variation 1.074° W

METAR

EGBB 202150Z 14007KT CAVOK 13/09 Q1019

Decode

TAF

TAF EGBB 201656Z 2018/2118 15005KT 9999 FEW045 PROB30 2103/2107 6000 PROB30 TEMPO 2114/2117 6000 +SHRA SHGS

Decode

Departure Runways

ID Width Length Bearing (true) Bearing (mag) Surface Threshold Offset Overrun Length
15 151 ft / 46 m 8,477 ft / 2,584 m 145.87° 146.94° Asphalt 925 ft / 282 m 0 ft / 0 m
33 151 ft / 46 m 8,477 ft / 2,584 m 325.89° 326.96° Asphalt 958 ft / 292 m 0 ft / 0 m

LJLJ

Details ICAO LJLJ (LJU)
Name LJUBLJANA
Region Slovenia
Timezone Europe/Ljubljana (UTC+2.0)
Stats Elevation 1,273 ft / 388 m (AMSL)
Location 46.223685° 14.457608°
Runways 1
Magnetic Variation 3.711° E

METAR

LJLJ 202200Z 28006KT 9999 BKN060 14/12 Q1019 NOSIG

Decode

TAF

TAF LJLJ 202000Z 2021/2121 10005KT 9999 FEW050 BKN100 BECMG 2021/2023 30003KT BECMG 2108/2110 12005KT FEW040 SCT075 PROB30 TEMPO 2112/2118 FEW045TCU BKN055

Decode

Destination Runways

ID Width Length Bearing (true) Bearing (mag) Surface Threshold Offset Overrun Length
13 148 ft / 45 m 10,811 ft / 3,295 m 126.47° 122.76° Asphalt 0 ft / 0 m 0 ft / 0 m
31 148 ft / 45 m 10,811 ft / 3,295 m 306.49° 302.78° Asphalt 0 ft / 0 m 0 ft / 0 m

Approach Navaids

Runway Type Ident Frequency Range Bearing (true) Bearing (mag) Slope Elevation
31 Localiser LJB 110.50 MHz 18 nm / 33 km 306.46° 302.75° - 1,282 ft / 391 m (AMSL)
31 Glidescope LJB 110.50 MHz 10 nm / 19 km 306.48° 302.77° 3.00° 1,198 ft / 365 m (AMSL)
31 DME LJB 110.50 MHz 18 nm / 33 km - - - 1,198 ft / 365 m (AMSL)

Popular Alternatives